createdAt,value
2022-10-18T00:01:10.923Z,97115.22
2022-10-18T00:03:39.095Z,97366.91
2022-10-18T00:06:09.111Z,97366.88
2022-10-18T00:08:39.048Z,97359.88
2022-10-18T00:11:07.976Z,97368.00
2022-10-18T00:13:35.515Z,97362.53
2022-10-18T00:16:03.492Z,97370.25
2022-10-18T00:18:30.965Z,97362.78
2022-10-18T00:21:01.885Z,97367.84
2022-10-18T00:23:31.731Z,97362.78
2022-10-18T00:26:01.734Z,97364.06
2022-10-18T00:28:30.836Z,97363.31
2022-10-18T00:30:58.836Z,97364.59
2022-10-18T00:33:28.275Z,97358.47
2022-10-18T00:35:56.990Z,97360.44
2022-10-18T00:38:24.877Z,97360.78
2022-10-18T00:40:52.698Z,97365.97
2022-10-18T00:43:24.840Z,97360.59
2022-10-18T00:45:53.027Z,97365.59
2022-10-18T00:48:23.247Z,97370.00
2022-10-18T00:50:51.110Z,97369.94
2022-10-18T00:53:19.224Z,97370.59
2022-10-18T00:55:46.825Z,97367.97
2022-10-18T00:58:14.730Z,97362.66
2022-10-18T01:00:43.704Z,97361.13
2022-10-18T01:03:13.441Z,97356.59
2022-10-18T01:05:42.775Z,97358.22
2022-10-18T01:08:21.902Z,97351.50
2022-10-18T01:10:51.312Z,97361.72
2022-10-18T01:13:25.814Z,97361.19
2022-10-18T01:18:25.825Z,97366.53
2022-10-18T01:21:07.544Z,97364.94
2022-10-18T01:23:40.421Z,97358.53
2022-10-18T01:26:13.403Z,97359.28
2022-10-18T01:28:46.979Z,97369.19
2022-10-18T01:31:16.869Z,97364.91
2022-10-18T01:33:49.321Z,97367.59
2022-10-18T01:36:20.005Z,97367.06
2022-10-18T01:38:48.786Z,97362.28
2022-10-18T01:41:22.966Z,97362.25
2022-10-18T01:43:53.060Z,97363.25
2022-10-18T01:46:23.705Z,97370.28
2022-10-18T01:48:53.179Z,97375.03
2022-10-18T01:51:21.070Z,97362.25
2022-10-18T01:53:49.851Z,97353.66
2022-10-18T01:56:21.615Z,97355.56
2022-10-18T01:59:02.018Z,97358.72
2022-10-18T02:01:32.300Z,97355.28
2022-10-18T02:04:03.079Z,97358.78
2022-10-18T02:06:30.977Z,97357.19
2022-10-18T02:09:00.824Z,97347.75
2022-10-18T02:11:28.384Z,97345.84
2022-10-18T02:13:57.148Z,97345.91
2022-10-18T02:16:26.554Z,97345.38
2022-10-18T02:18:56.473Z,97338.66
2022-10-18T02:21:24.251Z,97342.94
2022-10-18T02:23:51.847Z,97333.69
2022-10-18T02:26:19.658Z,97337.47
2022-10-18T02:28:47.234Z,97336.59
2022-10-18T02:31:15.692Z,97331.47
2022-10-18T02:33:45.182Z,97327.47
2022-10-18T02:36:14.714Z,97328.50
2022-10-18T02:38:43.602Z,97321.38
2022-10-18T02:41:11.763Z,97317.84
2022-10-18T02:43:39.313Z,97319.13
2022-10-18T02:46:07.305Z,97320.25
2022-10-18T02:48:41.959Z,97321.56
2022-10-18T02:51:09.523Z,97330.94
2022-10-18T02:53:48.504Z,97328.22
2022-10-18T02:56:16.619Z,97319.34
2022-10-18T02:58:44.688Z,97324.84
2022-10-18T03:01:18.024Z,97323.81
2022-10-18T03:03:45.609Z,97327.94
2022-10-18T03:06:16.349Z,97325.09
2022-10-18T03:08:45.611Z,97329.19
2022-10-18T03:11:13.651Z,97328.94
2022-10-18T03:13:42.456Z,97325.16
2022-10-18T03:16:12.695Z,97330.47
2022-10-18T03:18:42.091Z,97319.94
2022-10-18T03:21:09.795Z,97319.69
2022-10-18T03:23:40.083Z,97323.84
2022-10-18T03:26:12.618Z,97323.75
2022-10-18T03:28:40.242Z,97319.56
2022-10-18T03:31:11.458Z,97323.78
2022-10-18T03:33:39.109Z,97320.41
2022-10-18T03:36:09.453Z,97349.53
2022-10-18T03:38:37.097Z,97315.91
2022-10-18T03:41:04.721Z,97315.41
2022-10-18T03:43:39.860Z,97318.78
2022-10-18T03:46:08.438Z,97313.59
2022-10-18T03:48:36.448Z,97312.38
2022-10-18T03:51:04.469Z,97312.47
2022-10-18T03:53:34.381Z,97321.44
2022-10-18T03:56:02.088Z,97325.34
2022-10-18T03:58:29.717Z,97333.41
2022-10-18T04:00:58.678Z,97334.53
2022-10-18T04:03:26.227Z,97332.91
2022-10-18T04:05:54.136Z,97333.97
2022-10-18T04:08:24.260Z,97323.56
2022-10-18T04:10:55.685Z,97322.78
2022-10-18T04:13:23.322Z,97331.28
2022-10-18T04:15:51.336Z,97336.13
2022-10-18T04:18:20.386Z,97336.91
2022-10-18T04:20:50.583Z,97326.94
2022-10-18T04:23:20.306Z,97323.19
2022-10-18T04:25:49.061Z,97329.88
2022-10-18T04:28:16.716Z,97332.88
2022-10-18T04:30:44.598Z,97331.97
2022-10-18T04:33:12.199Z,97334.00
2022-10-18T04:35:43.961Z,97333.97
2022-10-18T04:38:14.978Z,97342.69
2022-10-18T04:40:42.875Z,97342.09
2022-10-18T04:43:12.472Z,97340.31
2022-10-18T04:45:40.208Z,97345.19
2022-10-18T04:48:07.876Z,97338.94
2022-10-18T04:50:35.617Z,97344.09
2022-10-18T04:53:05.074Z,97346.34
2022-10-18T04:55:33.047Z,97351.00
2022-10-18T04:58:02.276Z,97343.00
2022-10-18T05:00:36.446Z,97349.78
2022-10-18T05:03:15.926Z,97343.44
2022-10-18T05:06:00.633Z,97352.09
2022-10-18T05:08:31.155Z,97351.44
2022-10-18T05:10:58.898Z,97345.75
2022-10-18T05:13:26.900Z,97346.19
2022-10-18T05:15:54.584Z,97353.09
2022-10-18T05:18:27.413Z,97265.91
2022-10-18T05:20:55.529Z,97342.78
2022-10-18T05:23:23.568Z,97341.13
2022-10-18T05:25:53.670Z,97352.03
2022-10-18T05:31:12.914Z,97349.72
2022-10-18T05:33:42.779Z,97353.88
2022-10-18T05:36:10.714Z,97344.19
2022-10-18T05:38:39.827Z,97339.22
2022-10-18T05:41:09.181Z,97344.56
2022-10-18T05:43:36.940Z,97330.19
2022-10-18T05:46:13.739Z,97338.88
2022-10-18T05:48:43.965Z,97334.31
2022-10-18T05:51:11.728Z,97340.81
2022-10-18T05:53:43.348Z,97345.41
2022-10-18T05:56:16.122Z,97342.69
2022-10-18T05:58:43.943Z,97344.75
2022-10-18T06:01:11.595Z,97336.56
2022-10-18T06:03:43.367Z,97345.84
2022-10-18T06:06:11.834Z,97337.66
2022-10-18T06:08:39.929Z,97347.84
2022-10-18T06:11:08.255Z,97339.03
2022-10-18T06:13:43.541Z,97339.91
2022-10-18T06:16:11.639Z,97339.13
2022-10-18T06:18:39.214Z,97348.97
2022-10-18T06:21:07.224Z,97342.03
2022-10-18T06:23:37.423Z,97341.75
2022-10-18T06:26:09.307Z,97344.38
2022-10-18T06:28:37.108Z,97355.47
2022-10-18T06:31:07.010Z,97363.84
2022-10-18T06:33:35.500Z,97359.00
2022-10-18T06:36:05.687Z,97352.09
2022-10-18T06:38:33.973Z,97357.88
2022-10-18T06:41:01.949Z,97359.75
2022-10-18T06:43:29.579Z,97360.00
2022-10-18T06:45:57.331Z,97365.56
2022-10-18T06:48:26.689Z,97358.84
2022-10-18T06:50:55.022Z,97357.09
2022-10-18T06:53:25.005Z,97352.38
2022-10-18T06:55:54.481Z,97345.97
2022-10-18T06:58:22.234Z,97354.00
2022-10-18T07:00:50.391Z,97360.38
2022-10-18T07:03:18.082Z,97355.06
2022-10-18T07:05:49.797Z,97363.31
2022-10-18T07:08:18.054Z,97360.00
2022-10-18T07:10:51.658Z,97371.53
2022-10-18T07:13:32.067Z,97367.22
2022-10-18T07:16:05.987Z,97375.50
2022-10-18T07:18:34.734Z,97382.69
2022-10-18T07:21:05.519Z,97384.28
2022-10-18T07:23:33.663Z,97383.38
2022-10-18T07:26:03.255Z,97367.38
2022-10-18T07:28:31.601Z,97373.28
2022-10-18T07:31:03.609Z,97371.88
2022-10-18T07:33:34.631Z,97376.09
2022-10-18T07:36:04.499Z,97374.59
2022-10-18T07:38:36.871Z,97366.72
2022-10-18T07:41:06.441Z,97371.88
2022-10-18T07:43:34.711Z,97375.03
2022-10-18T07:46:06.531Z,97373.13
2022-10-18T07:48:34.895Z,97378.50
2022-10-18T07:51:05.010Z,97380.41
2022-10-18T07:53:34.687Z,97388.69
2022-10-18T07:56:05.796Z,97384.78
2022-10-18T07:58:39.541Z,97387.75
2022-10-18T08:01:10.824Z,97390.56
2022-10-18T08:03:39.878Z,97388.41
2022-10-18T08:06:09.689Z,97397.09
2022-10-18T08:08:39.230Z,97392.53
2022-10-18T08:11:07.352Z,97399.19
2022-10-18T08:13:35.433Z,97399.19
2022-10-18T08:16:06.514Z,97399.13
2022-10-18T08:18:35.007Z,97408.66
2022-10-18T08:21:02.798Z,97409.31
2022-10-18T08:23:31.972Z,97410.78
2022-10-18T08:26:03.379Z,97405.16
2022-10-18T08:28:46.064Z,97399.88
2022-10-18T08:31:24.249Z,97399.44
2022-10-18T08:33:54.939Z,97406.56
2022-10-18T08:36:22.625Z,97403.78
2022-10-18T08:38:53.484Z,97408.03
2022-10-18T08:41:46.249Z,97407.22
2022-10-18T08:44:15.968Z,97400.88
2022-10-18T08:46:45.806Z,97408.22
2022-10-18T08:49:16.569Z,97412.13
2022-10-18T08:51:47.806Z,97410.97
2022-10-18T08:54:16.697Z,97406.56
2022-10-18T08:56:46.881Z,97415.84
2022-10-18T08:59:19.143Z,97411.97
2022-10-18T09:01:57.561Z,97413.59
2022-10-18T09:04:29.137Z,97413.38
2022-10-18T09:07:02.352Z,97417.03
2022-10-18T09:09:36.403Z,97418.81
2022-10-18T09:12:11.037Z,97418.50
2022-10-18T09:14:41.910Z,97423.25
2022-10-18T09:17:15.871Z,97426.63
2022-10-18T09:19:50.502Z,97424.84
2022-10-18T09:22:20.999Z,97428.06
2022-10-18T09:24:50.625Z,97428.34
2022-10-18T09:27:20.583Z,97438.81
2022-10-18T09:29:52.591Z,97436.09
2022-10-18T09:32:26.747Z,97427.34
2022-10-18T09:34:54.937Z,97429.41
2022-10-18T09:37:23.045Z,97428.69
2022-10-18T09:39:52.446Z,97432.13
2022-10-18T09:42:26.984Z,97427.25
2022-10-18T09:44:57.887Z,97428.44
2022-10-18T09:47:25.860Z,97435.75
2022-10-18T09:49:54.646Z,97425.84
2022-10-18T09:52:22.881Z,97440.78
2022-10-18T09:54:51.184Z,97438.28
2022-10-18T09:57:19.467Z,97427.56
2022-10-18T09:59:49.521Z,97432.31
2022-10-18T10:02:20.064Z,97433.81
2022-10-18T10:04:50.001Z,97428.94
2022-10-18T10:07:18.394Z,97432.34
2022-10-18T10:09:49.700Z,97438.34
2022-10-18T10:12:28.065Z,97435.59
2022-10-18T10:15:00.817Z,97423.63
2022-10-18T10:17:29.758Z,97436.00
2022-10-18T10:20:09.585Z,97430.59
2022-10-18T10:22:44.494Z,97438.78
2022-10-18T10:25:20.786Z,97254.78
2022-10-18T10:27:48.803Z,97445.00
2022-10-18T10:30:34.211Z,97431.38
2022-10-18T10:33:06.422Z,97436.69
2022-10-18T10:38:29.735Z,97434.44
2022-10-18T10:40:57.478Z,97437.59
2022-10-18T10:43:42.011Z,97430.25
2022-10-18T10:46:10.512Z,97438.69
2022-10-18T10:48:42.886Z,97437.94
2022-10-18T10:51:11.562Z,97432.63
2022-10-18T10:53:43.718Z,97433.91
2022-10-18T10:56:16.120Z,97423.50
2022-10-18T10:58:44.299Z,97422.66
2022-10-18T11:01:19.650Z,97418.00
2022-10-18T11:03:50.003Z,97425.25
2022-10-18T11:06:30.819Z,97418.03
2022-10-18T11:08:58.918Z,97421.00
2022-10-18T11:11:39.662Z,97420.34
2022-10-18T11:14:25.320Z,97406.25
2022-10-18T11:16:56.161Z,97404.78
2022-10-18T11:19:30.854Z,97410.91
2022-10-18T11:21:59.057Z,97414.31
2022-10-18T11:24:28.153Z,97418.81
2022-10-18T11:26:57.557Z,97421.19
2022-10-18T11:29:28.797Z,97412.69
2022-10-18T11:32:01.786Z,97420.59
2022-10-18T11:34:39.576Z,97415.53
2022-10-18T11:37:27.220Z,97413.97
2022-10-18T11:39:59.268Z,97428.59
2022-10-18T11:42:30.031Z,97425.75
2022-10-18T11:45:05.180Z,97422.59
2022-10-18T11:47:35.179Z,97427.31
2022-10-18T11:50:06.884Z,97422.56
2022-10-18T11:52:36.213Z,97440.84
2022-10-18T11:55:16.284Z,97425.66
2022-10-18T11:57:55.362Z,97426.22
2022-10-18T12:00:29.675Z,97428.94
2022-10-18T12:03:05.420Z,97389.50
2022-10-18T12:05:33.498Z,97425.28
2022-10-18T12:08:02.466Z,97409.53
2022-10-18T12:10:44.472Z,97408.28
2022-10-18T12:13:23.112Z,97410.00
2022-10-18T12:16:04.637Z,97405.28
2022-10-18T12:18:32.781Z,97409.44
2022-10-18T12:21:00.529Z,97421.19
2022-10-18T12:23:32.198Z,97413.66
2022-10-18T12:26:00.707Z,97402.53
2022-10-18T12:28:32.648Z,97401.75
2022-10-18T12:31:03.093Z,97406.94
2022-10-18T12:33:35.981Z,97403.69
2022-10-18T12:36:07.100Z,97409.94
2022-10-18T12:38:39.364Z,97404.13
2022-10-18T12:41:07.048Z,97406.81
2022-10-18T12:43:40.444Z,97402.69
2022-10-18T12:46:13.347Z,97404.56
2022-10-18T12:48:42.708Z,97419.06
2022-10-18T12:51:19.632Z,97414.25
2022-10-18T12:53:47.907Z,97411.13
2022-10-18T12:56:37.275Z,97399.03
2022-10-18T12:59:28.689Z,97405.88
2022-10-18T13:02:14.100Z,97394.44
2022-10-18T13:04:43.512Z,97392.16
2022-10-18T13:07:20.025Z,97404.91
2022-10-18T13:10:05.038Z,97399.91
2022-10-18T13:12:43.747Z,97408.34
2022-10-18T13:15:26.342Z,97408.50
2022-10-18T13:17:58.187Z,97406.66
2022-10-18T13:20:28.435Z,97398.16
2022-10-18T13:23:00.830Z,97402.22
2022-10-18T13:25:29.639Z,97395.06
2022-10-18T13:27:58.999Z,97395.22
2022-10-18T13:30:33.016Z,97405.41
2022-10-18T13:33:04.311Z,97394.44
2022-10-18T13:35:50.813Z,97392.84
2022-10-18T13:38:24.780Z,97405.31
2022-10-18T13:41:01.187Z,97390.16
2022-10-18T13:43:52.231Z,97383.38
2022-10-18T13:46:20.142Z,97386.66
2022-10-18T13:48:53.899Z,97392.75
2022-10-18T13:51:34.862Z,97396.84
2022-10-18T13:54:06.288Z,97387.94
2022-10-18T13:56:43.189Z,97392.31
2022-10-18T13:59:17.220Z,97397.22
2022-10-18T14:01:52.176Z,97401.56
2022-10-18T14:04:44.451Z,97406.50
2022-10-18T14:07:20.147Z,97406.47
2022-10-18T14:09:52.261Z,97419.44
2022-10-18T14:12:24.285Z,97423.34
2022-10-18T14:14:52.532Z,97428.41
2022-10-18T14:17:26.629Z,97425.66
2022-10-18T14:19:55.841Z,97423.44
2022-10-18T14:22:27.511Z,97425.16
2022-10-18T14:24:58.824Z,97419.78
2022-10-18T14:27:26.924Z,97421.88
2022-10-18T14:30:10.086Z,97424.56
2022-10-18T14:32:43.779Z,97420.78
2022-10-18T14:35:33.493Z,97429.63
2022-10-18T14:38:07.111Z,97434.00
2022-10-18T14:40:37.838Z,97415.03
2022-10-18T14:43:08.986Z,97415.59
2022-10-18T14:45:39.431Z,97416.84
2022-10-18T14:48:12.568Z,97419.91
2022-10-18T14:50:40.457Z,97411.03
2022-10-18T14:53:15.739Z,97405.88
2022-10-18T14:55:43.410Z,97416.88
2022-10-18T14:58:13.069Z,97424.38
2022-10-18T15:00:42.830Z,97431.50
2022-10-18T15:03:18.387Z,97419.53
2022-10-18T15:05:57.163Z,97428.41
2022-10-18T15:08:27.350Z,97424.16
2022-10-18T15:10:58.148Z,97433.72
2022-10-18T15:13:26.519Z,97435.59
2022-10-18T15:15:56.923Z,97432.56
2022-10-18T15:18:25.285Z,97425.03
2022-10-18T15:21:07.827Z,97429.88
2022-10-18T15:23:37.131Z,97421.84
2022-10-18T15:26:06.064Z,97419.91
2022-10-18T15:28:36.102Z,97424.16
2022-10-18T15:31:03.890Z,97430.44
2022-10-18T15:33:34.495Z,97429.00
2022-10-18T15:36:11.966Z,97456.50
2022-10-18T15:38:42.175Z,97430.72
2022-10-18T15:41:29.544Z,97421.63
2022-10-18T15:44:11.545Z,97453.91
2022-10-18T15:46:41.540Z,97423.06
2022-10-18T15:49:34.762Z,97428.72
2022-10-18T15:52:35.225Z,97422.56
2022-10-18T15:55:26.918Z,97423.25
2022-10-18T15:57:57.504Z,97421.44
2022-10-18T16:00:25.067Z,97423.38
2022-10-18T16:02:55.233Z,97429.09
2022-10-18T16:05:22.840Z,97431.53
2022-10-18T16:07:52.348Z,97428.09
2022-10-18T16:10:21.117Z,97431.91
2022-10-18T16:12:50.534Z,97426.38
2022-10-18T16:15:21.485Z,97429.16
2022-10-18T16:17:49.374Z,97435.22
2022-10-18T16:20:17.391Z,97435.81
2022-10-18T16:22:45.081Z,97433.41
2022-10-18T16:25:12.720Z,97451.34
2022-10-18T16:27:40.697Z,97438.63
2022-10-18T16:30:11.264Z,97445.69
2022-10-18T16:32:40.864Z,97447.44
2022-10-18T16:35:10.249Z,97437.22
2022-10-18T16:37:43.683Z,97447.97
2022-10-18T16:40:22.614Z,97444.97
2022-10-18T16:42:52.875Z,97444.66
2022-10-18T16:45:23.337Z,97450.22
2022-10-18T16:47:55.209Z,97453.41
2022-10-18T16:50:22.861Z,97455.59
2022-10-18T16:52:50.664Z,97463.09
2022-10-18T16:55:21.680Z,97457.38
2022-10-18T16:57:51.901Z,97459.47
2022-10-18T17:00:23.023Z,97467.72
2022-10-18T17:02:52.542Z,97469.88
2022-10-18T17:05:23.315Z,97465.91
2022-10-18T17:08:04.140Z,97469.69
2022-10-18T17:10:32.140Z,97464.09
2022-10-18T17:12:59.771Z,97472.09
2022-10-18T17:15:29.449Z,97470.91
2022-10-18T17:18:06.468Z,97479.25
2022-10-18T17:20:35.731Z,97475.88
2022-10-18T17:23:03.689Z,97478.53
2022-10-18T17:28:04.160Z,97484.66
2022-10-18T17:30:31.797Z,97483.66
2022-10-18T17:33:01.111Z,97479.50
2022-10-18T17:35:29.370Z,97478.69
2022-10-18T17:37:57.388Z,97485.63
2022-10-18T17:40:33.475Z,97482.22
2022-10-18T17:43:04.052Z,97482.81
2022-10-18T17:45:31.733Z,97489.81
2022-10-18T17:48:01.099Z,97490.19
2022-10-18T17:50:29.342Z,97487.59
2022-10-18T17:52:57.334Z,97490.56
2022-10-18T17:55:25.164Z,97488.38
2022-10-18T17:57:52.720Z,97486.59
2022-10-18T18:00:24.485Z,97494.38
2022-10-18T18:02:54.730Z,97490.56
2022-10-18T18:05:23.796Z,97504.31
2022-10-18T18:07:51.470Z,97504.22
2022-10-18T18:10:21.686Z,97506.03
2022-10-18T18:12:51.742Z,97499.16
2022-10-18T18:15:19.374Z,97503.91
2022-10-18T18:17:56.769Z,97507.59
2022-10-18T18:20:28.128Z,97500.94
2022-10-18T18:22:55.790Z,97508.47
2022-10-18T18:25:23.427Z,97511.63
2022-10-18T18:27:55.121Z,97509.16
2022-10-18T18:30:23.111Z,97504.63
2022-10-18T18:32:50.725Z,97497.81
2022-10-18T18:35:18.950Z,97502.88
2022-10-18T18:37:50.666Z,97499.81
2022-10-18T18:40:19.869Z,97498.44
2022-10-18T18:43:01.626Z,97495.53
2022-10-18T18:45:35.351Z,97486.66
2022-10-18T18:48:02.902Z,97497.72
2022-10-18T18:50:32.697Z,97495.75
2022-10-18T18:53:02.024Z,97488.84
2022-10-18T18:55:30.170Z,97491.63
2022-10-18T18:57:59.950Z,97497.25
2022-10-18T19:00:27.527Z,97490.16
2022-10-18T19:02:56.606Z,97247.53
2022-10-18T19:05:25.726Z,97496.16
2022-10-18T19:07:53.322Z,97263.63
2022-10-18T19:10:22.269Z,97492.59
2022-10-18T19:12:51.221Z,97488.03
2022-10-18T19:15:21.707Z,97489.78
2022-10-18T19:17:49.278Z,97489.94
2022-10-18T19:20:17.726Z,97486.41
2022-10-18T19:22:46.096Z,97484.31
2022-10-18T19:25:13.792Z,97484.91
2022-10-18T19:27:43.128Z,97483.81
2022-10-18T19:30:12.224Z,97477.66
2022-10-18T19:32:39.807Z,97490.88
2022-10-18T19:35:07.662Z,97482.31
2022-10-18T19:37:35.486Z,97485.41
2022-10-18T19:40:06.014Z,97483.34
2022-10-18T19:42:37.930Z,97480.66
2022-10-18T19:45:08.878Z,97480.41
2022-10-18T19:47:38.427Z,97486.28
2022-10-18T19:50:06.397Z,97479.81
2022-10-18T19:52:38.149Z,97479.47
2022-10-18T19:55:06.447Z,97482.84
2022-10-18T19:57:34.114Z,97475.88
2022-10-18T20:00:02.628Z,97487.28
2022-10-18T20:02:39.598Z,97481.16
2022-10-18T20:05:07.597Z,97482.63
2022-10-18T20:07:45.368Z,97479.34
2022-10-18T20:10:13.124Z,97485.22
2022-10-18T20:12:41.048Z,97491.78
2022-10-18T20:15:14.674Z,97484.56
2022-10-18T20:17:43.880Z,97487.78
2022-10-18T20:20:11.898Z,97484.81
2022-10-18T20:22:39.502Z,97500.56
2022-10-18T20:25:07.221Z,97498.13
2022-10-18T20:27:35.540Z,97492.66
2022-10-18T20:30:06.458Z,97484.69
2022-10-18T20:32:36.727Z,97488.16
2022-10-18T20:35:06.570Z,97479.09
2022-10-18T20:37:34.858Z,97478.38
2022-10-18T20:40:03.918Z,97477.78
2022-10-18T20:42:31.597Z,97484.41
2022-10-18T20:45:01.281Z,97487.38
2022-10-18T20:47:29.034Z,97491.41
2022-10-18T20:49:59.019Z,97483.66
2022-10-18T20:52:28.369Z,97490.91
2022-10-18T20:54:55.959Z,97488.75
2022-10-18T20:57:23.551Z,97485.09
2022-10-18T20:59:51.142Z,97492.94
2022-10-18T21:02:21.569Z,97486.06
2022-10-18T21:04:49.161Z,97473.88
2022-10-18T21:07:18.885Z,97229.72
2022-10-18T21:12:35.282Z,97474.34
2022-10-18T21:15:12.307Z,97476.50
2022-10-18T21:17:45.518Z,97473.56
2022-10-18T21:20:13.717Z,97471.75
2022-10-18T21:22:41.598Z,97469.03
2022-10-18T21:25:14.540Z,97471.50
2022-10-18T21:27:42.593Z,97466.16
2022-10-18T21:30:13.275Z,97465.16
2022-10-18T21:32:40.834Z,97470.78
2022-10-18T21:35:08.714Z,97463.06
2022-10-18T21:37:39.028Z,97462.78
2022-10-18T21:40:07.459Z,97456.47
2022-10-18T21:42:45.545Z,97455.69
2022-10-18T21:45:16.102Z,97454.44
2022-10-18T21:47:43.906Z,97458.94
2022-10-18T21:50:11.697Z,97450.59
2022-10-18T21:52:46.773Z,97447.66
2022-10-18T21:55:14.320Z,97444.53
2022-10-18T21:57:43.325Z,97444.69
2022-10-18T22:00:15.483Z,97449.31
2022-10-18T22:02:43.161Z,97441.75
2022-10-18T22:05:12.353Z,97451.78
2022-10-18T22:07:40.056Z,97446.88
2022-10-18T22:10:08.230Z,97443.72
2022-10-18T22:12:38.453Z,97439.97
2022-10-18T22:15:11.340Z,97449.72
2022-10-18T22:17:38.890Z,97446.50
2022-10-18T22:20:07.304Z,97446.22
2022-10-18T22:22:34.925Z,97444.69
2022-10-18T22:25:04.605Z,97434.53
2022-10-18T22:27:32.578Z,97433.94
2022-10-18T22:30:00.521Z,97439.38
2022-10-18T22:32:29.690Z,97444.47
2022-10-18T22:35:01.069Z,97435.13
2022-10-18T22:37:39.684Z,97431.06
2022-10-18T22:40:08.170Z,97425.03
2022-10-18T22:42:36.008Z,97428.31
2022-10-18T22:45:06.777Z,97428.31
2022-10-18T22:47:36.320Z,97425.50
2022-10-18T22:50:04.366Z,97418.72
2022-10-18T22:52:32.740Z,97421.34
2022-10-18T22:55:00.530Z,97417.31
2022-10-18T22:57:28.159Z,97426.53
2022-10-18T22:59:56.033Z,97420.69
2022-10-18T23:02:23.700Z,97420.13
2022-10-18T23:04:52.713Z,97413.53
2022-10-18T23:07:20.543Z,97413.06
2022-10-18T23:09:48.168Z,97416.91
2022-10-18T23:12:15.788Z,97416.56
2022-10-18T23:14:43.857Z,97414.41
2022-10-18T23:17:14.065Z,97402.22
2022-10-18T23:19:41.677Z,97409.53
2022-10-18T23:22:10.932Z,97411.81
2022-10-18T23:24:38.474Z,97411.84
2022-10-18T23:27:06.346Z,97407.81
2022-10-18T23:29:34.973Z,97408.09
2022-10-18T23:32:02.556Z,97404.25
2022-10-18T23:34:31.986Z,97409.13
2022-10-18T23:36:59.628Z,97402.59
2022-10-18T23:39:30.371Z,97395.47
2022-10-18T23:41:57.914Z,97406.56
2022-10-18T23:44:43.278Z,97407.56
2022-10-18T23:47:14.143Z,97408.13
2022-10-18T23:49:41.710Z,97411.06
2022-10-18T23:52:11.754Z,97417.19
2022-10-18T23:54:40.769Z,97419.06
2022-10-18T23:57:08.643Z,97423.06
2022-10-18T23:59:36.243Z,97425.75
